Time;durP1;ratioP1;P1;durP2;ratioP2;P2;SDS_P1;SDS_P2;PMS_P1;PMS_P2;Temp;Humidity;BMP_temperature;BMP_pressure;BME280_temperature;BME280_humidity;BME280_pressure;Samples;Min_cycle;Max_cycle;Signal;HPM_P1;HPM_P2
2022/05/23 00:01:15;;;;;;;6.30;3.83;;;19.90;99.90;;;;;;5016875;28;20072;-60
2022/05/23 00:03:41;;;;;;;5.63;4.20;;;19.80;99.90;;;;;;5017031;28;20038;-62
2022/05/23 00:06:07;;;;;;;5.07;3.67;;;19.80;99.90;;;;;;5017452;28;20394;-60
2022/05/23 00:08:32;;;;;;;6.32;3.72;;;19.70;99.90;;;;;;5016286;28;20224;-62
2022/05/23 00:10:58;;;;;;;8.32;4.38;;;19.60;99.90;;;;;;5016921;28;20096;-60
2022/05/23 00:13:24;;;;;;;6.72;3.95;;;19.50;99.90;;;;;;5017291;28;20101;-59
2022/05/23 00:15:50;;;;;;;6.57;3.78;;;19.40;99.90;;;;;;5017502;28;20114;-60
2022/05/23 00:18:16;;;;;;;6.57;3.95;;;19.50;99.90;;;;;;5016914;28;20038;-59
2022/05/23 00:20:42;;;;;;;6.50;4.15;;;19.40;99.90;;;;;;5016753;28;20450;-60
2022/05/23 00:23:08;;;;;;;5.13;3.90;;;19.40;99.90;;;;;;5016912;28;20113;-60
2022/05/23 00:25:34;;;;;;;4.95;3.78;;;19.40;99.90;;;;;;5016858;28;20038;-62
2022/05/23 00:28:00;;;;;;;6.93;4.03;;;19.20;99.90;;;;;;5016798;28;20040;-62
2022/05/23 00:30:27;;;;;;;4.65;3.45;;;19.30;99.90;;;;;;5016736;28;20038;-59
2022/05/23 00:35:41;;;;;;;5.20;3.92;;;19.00;99.90;;;;;;5016987;28;20041;-59
2022/05/23 00:38:08;;;;;;;6.60;4.20;;;19.00;99.90;;;;;;5016491;28;20092;-63
2022/05/23 00:40:49;;;;;;;6.55;4.63;;;18.90;99.90;;;;;;5015847;28;20290;-59
2022/05/23 00:43:21;;;;;;;4.72;3.90;;;19.00;99.90;;;;;;5016803;28;20022;-59
2022/05/23 00:46:00;;;;;;;4.10;3.70;;;19.00;99.90;;;;;;5015687;28;20038;-60
2022/05/23 00:48:29;;;;;;;4.88;3.65;;;18.90;99.90;;;;;;5015731;28;20030;-59
2022/05/23 00:51:01;;;;;;;6.78;4.25;;;18.80;99.90;;;;;;5015888;28;20038;-59
2022/05/23 00:53:30;;;;;;;6.45;4.10;;;18.80;99.90;;;;;;5015981;28;20034;-62
2022/05/23 00:55:56;;;;;;;6.25;4.13;;;18.70;99.90;;;;;;5016704;28;20077;-59
2022/05/23 00:58:31;;;;;;;5.88;4.05;;;18.60;99.90;;;;;;5020345;28;20088;-59
2022/05/23 01:01:01;;;;;;;6.10;4.10;;;18.50;99.90;;;;;;5019892;28;20046;-59
2022/05/23 01:03:27;;;;;;;5.82;3.90;;;18.70;99.90;;;;;;5019370;28;20377;-59
2022/05/23 01:05:54;;;;;;;7.38;4.70;;;18.60;99.90;;;;;;5019342;28;20084;-59
2022/05/23 01:08:21;;;;;;;5.70;4.53;;;18.50;99.90;;;;;;5020023;28;20314;-60
2022/05/23 01:10:47;;;;;;;6.13;4.70;;;18.60;99.90;;;;;;5019086;28;20044;-59
2022/05/23 01:13:15;;;;;;;6.25;4.57;;;18.70;99.90;;;;;;5019071;28;20034;-59
2022/05/23 01:15:47;;;;;;;6.22;4.15;;;18.70;99.90;;;;;;5019853;28;20129;-59
2022/05/23 01:18:15;;;;;;;5.95;4.43;;;18.80;99.90;;;;;;5019204;28;20309;-60
2022/05/23 01:20:45;;;;;;;5.60;4.40;;;18.80;99.90;;;;;;5019639;28;20038;-60
2022/05/23 01:23:22;;;;;;;5.32;4.05;;;18.70;99.90;;;;;;5003066;28;20037;-60
2022/05/23 01:26:11;;;;;;;4.90;4.30;;;18.70;99.90;;;;;;5011838;28;20038;-60
2022/05/23 01:28:44;;;;;;;5.97;4.15;;;18.80;99.90;;;;;;5003378;28;20034;-60
2022/05/23 01:31:13;;;;;;;5.75;4.38;;;18.90;99.90;;;;;;5019000;28;20038;-60
2022/05/23 01:33:39;;;;;;;7.15;4.22;;;18.80;99.90;;;;;;5018728;28;20119;-60
2022/05/23 01:36:11;;;;;;;7.75;4.60;;;18.90;99.90;;;;;;5018656;28;20429;-60
2022/05/23 01:38:38;;;;;;;4.55;4.10;;;19.00;99.90;;;;;;5018756;28;20350;-62
2022/05/23 01:41:23;;;;;;;6.15;4.40;;;18.90;99.90;;;;;;5018437;28;20034;-60
2022/05/23 01:43:56;;;;;;;6.10;4.40;;;18.90;99.90;;;;;;5018435;28;20342;-60
2022/05/23 01:46:34;;;;;;;5.57;4.15;;;18.90;99.90;;;;;;5018438;28;20034;-60
2022/05/23 01:49:15;;;;;;;6.50;4.47;;;18.80;99.90;;;;;;5018404;28;20034;-60
2022/05/23 01:51:41;;;;;;;4.95;4.07;;;18.90;99.90;;;;;;5002300;28;20029;-60
2022/05/23 01:54:07;;;;;;;7.15;4.93;;;18.80;99.90;;;;;;5018393;28;20041;-60
2022/05/23 01:56:34;;;;;;;6.45;4.50;;;19.00;99.90;;;;;;5002216;28;20334;-60
2022/05/23 02:01:46;;;;;;;6.38;4.72;;;19.00;99.90;;;;;;5018706;28;20072;-60
2022/05/23 02:04:23;;;;;;;10.00;5.30;;;19.00;99.90;;;;;;5003393;28;20044;-60
2022/05/23 02:06:49;;;;;;;8.25;5.07;;;19.00;99.90;;;;;;5017872;28;20033;-60
2022/05/23 02:09:26;;;;;;;8.52;5.18;;;18.90;99.90;;;;;;5018093;28;20045;-59
2022/05/23 02:12:02;;;;;;;5.45;4.63;;;18.90;99.90;;;;;;5003797;28;20034;-59
2022/05/23 02:14:32;;;;;;;6.93;5.20;;;18.80;99.90;;;;;;5018342;28;20511;-59
2022/05/23 02:17:00;;;;;;;6.72;5.10;;;18.80;99.90;;;;;;5017819;28;20124;-59
2022/05/23 02:19:26;;;;;;;8.40;5.97;;;18.80;99.90;;;;;;5018927;28;20112;-60
2022/05/23 02:22:02;;;;;;;9.60;5.90;;;18.80;99.90;;;;;;5003241;28;20036;-59
2022/05/23 02:24:28;;;;;;;10.63;6.22;;;18.80;99.90;;;;;;5018511;28;20038;-59
2022/05/23 02:26:54;;;;;;;10.38;6.50;;;18.80;99.90;;;;;;5017899;28;20085;-59
2022/05/23 02:29:46;;;;;;;11.70;6.68;;;18.70;99.90;;;;;;5015274;28;20042;-60
2022/05/23 02:32:12;;;;;;;8.50;7.00;;;18.80;99.90;;;;;;5018273;28;20326;-59
2022/05/23 02:34:39;;;;;;;12.73;7.60;;;18.80;99.90;;;;;;5018325;28;20104;-61
2022/05/23 02:37:05;;;;;;;9.68;6.97;;;18.80;99.90;;;;;;5017536;28;20056;-59
2022/05/23 02:39:44;;;;;;;9.35;6.93;;;18.70;99.90;;;;;;5017179;28;20030;-59
2022/05/23 02:42:10;;;;;;;9.02;7.40;;;18.60;99.90;;;;;;5017262;28;20280;-59
2022/05/23 02:44:37;;;;;;;9.95;6.68;;;18.60;99.90;;;;;;5017293;28;20030;-59
2022/05/23 02:47:04;;;;;;;9.68;6.97;;;18.50;99.90;;;;;;5017427;28;20112;-59
2022/05/23 02:49:34;;;;;;;11.68;7.60;;;18.40;99.90;;;;;;5017337;28;20046;-59
2022/05/23 02:52:01;;;;;;;9.38;6.85;;;18.40;99.90;;;;;;5017693;28;20041;-59
2022/05/23 02:54:39;;;;;;;9.18;7.15;;;18.40;99.90;;;;;;5002696;28;20318;-59
2022/05/23 02:57:06;;;;;;;10.82;7.45;;;18.50;99.90;;;;;;5018205;28;20038;-59
2022/05/23 02:59:32;;;;;;;12.13;7.60;;;18.40;99.90;;;;;;5017067;28;20065;-60
2022/05/23 03:05:09;;;;;;;12.38;7.40;;;18.40;99.90;;;;;;4961147;28;20050;-59
2022/05/23 03:07:36;;;;;;;9.77;8.05;;;18.40;99.90;;;;;;4977403;28;20315;-59
2022/05/23 03:10:05;;;;;;;10.27;7.72;;;18.40;99.90;;;;;;4980845;28;20037;-59
2022/05/23 03:12:31;;;;;;;10.85;8.18;;;18.30;99.90;;;;;;5000435;28;20034;-59
2022/05/23 03:14:57;;;;;;;13.48;8.15;;;18.20;99.90;;;;;;5016754;28;20030;-59
2022/05/23 03:17:23;;;;;;;11.32;7.60;;;18.10;99.90;;;;;;5016714;28;20080;-59
2022/05/23 03:19:49;;;;;;;14.02;7.65;;;18.20;99.90;;;;;;5016147;28;20379;-59
2022/05/23 03:27:46;;;;;;;9.57;7.97;;;17.90;99.90;;;;;;5016671;28;20034;-60
2022/05/23 03:30:17;;;;;;;10.88;8.63;;;17.80;99.90;;;;;;5000930;28;20025;-59
2022/05/23 03:32:54;;;;;;;10.52;7.70;;;17.70;99.90;;;;;;5016545;28;20033;-61
2022/05/23 03:35:21;;;;;;;11.77;8.60;;;17.60;99.90;;;;;;5016950;28;20406;-59
2022/05/23 03:37:46;;;;;;;9.57;8.18;;;17.60;99.90;;;;;;5016404;28;20057;-59
2022/05/23 03:40:13;;;;;;;11.88;7.72;;;17.50;99.90;;;;;;5016478;28;20410;-60
2022/05/23 03:42:44;;;;;;;11.60;8.05;;;17.50;99.90;;;;;;5016463;28;20361;-60
2022/05/23 03:45:11;;;;;;;13.10;8.65;;;17.30;99.90;;;;;;5016483;28;20030;-60
2022/05/23 03:47:42;;;;;;;12.52;9.20;;;17.30;99.90;;;;;;5017513;28;20390;-60
2022/05/23 03:50:14;;;;;;;11.87;9.27;;;17.20;99.90;;;;;;5016455;28;20066;-60
2022/05/23 03:52:40;;;;;;;12.52;8.80;;;17.20;99.90;;;;;;5016276;28;20048;-60
2022/05/23 03:55:06;;;;;;;19.50;9.63;;;17.20;99.90;;;;;;4999949;28;20045;-60
2022/05/23 03:57:33;;;;;;;15.43;9.35;;;17.20;99.90;;;;;;5016237;28;20306;-60
2022/05/23 03:59:59;;;;;;;14.00;9.27;;;17.30;99.90;;;;;;5016036;28;20080;-60
2022/05/23 04:02:27;;;;;;;10.13;8.65;;;17.50;99.90;;;;;;4999966;28;20045;-60
2022/05/23 04:04:54;;;;;;;13.02;10.00;;;17.50;99.90;;;;;;5016062;28;20061;-61
2022/05/23 04:07:41;;;;;;;12.23;9.55;;;17.50;99.90;;;;;;5009687;28;20104;-61
2022/05/23 04:10:24;;;;;;;11.35;10.15;;;17.50;99.90;;;;;;5016316;28;20398;-61
2022/05/23 04:12:50;;;;;;;11.52;9.60;;;17.40;99.90;;;;;;5016106;28;20030;-61
2022/05/23 04:15:17;;;;;;;14.82;10.70;;;17.50;99.90;;;;;;5016080;28;20041;-61
2022/05/23 04:17:43;;;;;;;15.75;9.95;;;17.40;99.90;;;;;;5016872;28;20050;-61
2022/05/23 04:20:10;;;;;;;12.18;9.63;;;17.50;99.90;;;;;;5017336;28;20065;-61
2022/05/23 04:22:45;;;;;;;13.55;10.52;;;17.50;99.90;;;;;;5015990;28;20426;-61
2022/05/23 04:25:17;;;;;;;13.07;9.75;;;17.40;99.90;;;;;;5000743;28;20034;-61
2022/05/23 04:27:43;;;;;;;11.95;9.98;;;17.40;99.90;;;;;;5015887;28;20321;-60
2022/05/23 04:30:10;;;;;;;11.60;9.40;;;17.40;99.90;;;;;;5000322;28;20037;-61
2022/05/23 04:35:24;;;;;;;12.63;9.80;;;17.50;99.90;;;;;;5021209;28;20145;-61
2022/05/23 04:37:54;;;;;;;13.05;9.57;;;17.60;99.90;;;;;;5019617;28;20037;-61
2022/05/23 04:40:28;;;;;;;12.38;10.30;;;17.60;99.90;;;;;;5004220;28;20421;-61
2022/05/23 04:42:54;;;;;;;13.98;9.88;;;17.60;99.90;;;;;;5019625;28;20036;-61
2022/05/23 04:45:20;;;;;;;14.50;10.45;;;17.60;99.90;;;;;;5019524;28;20113;-61
2022/05/23 04:50:49;;;;;;;11.43;9.07;;;17.60;99.90;;;;;;5019561;28;20038;-61
2022/05/23 04:53:17;;;;;;;10.57;9.23;;;17.70;99.90;;;;;;5019454;28;20030;-61
2022/05/23 04:55:59;;;;;;;10.25;9.13;;;17.70;99.90;;;;;;5019547;28;20129;-61
2022/05/23 04:58:26;;;;;;;12.23;9.32;;;17.80;99.90;;;;;;5019157;28;20049;-61
2022/05/23 05:00:56;;;;;;;12.95;9.20;;;17.90;99.90;;;;;;5002778;28;20084;-61
2022/05/23 05:03:22;;;;;;;13.18;9.60;;;18.00;99.90;;;;;;5019153;28;20030;-61
2022/05/23 05:05:50;;;;;;;12.43;9.95;;;18.10;99.90;;;;;;5019279;28;20145;-61
2022/05/23 05:08:16;;;;;;;11.18;9.38;;;18.40;99.90;;;;;;5019150;28;20025;-61
2022/05/23 05:10:46;;;;;;;12.07;9.40;;;18.40;99.90;;;;;;5018948;28;20453;-61
2022/05/23 05:13:12;;;;;;;15.40;9.77;;;18.50;99.90;;;;;;5019013;28;20141;-61
2022/05/23 05:15:38;;;;;;;12.95;9.27;;;18.40;99.90;;;;;;5019697;28;20034;-61
2022/05/23 05:18:10;;;;;;;14.68;9.63;;;18.40;99.90;;;;;;5003476;28;20128;-62
2022/05/23 05:20:41;;;;;;;11.88;8.93;;;18.50;99.90;;;;;;5019190;28;20030;-61
2022/05/23 05:23:37;;;;;;;14.40;9.32;;;18.60;99.90;;;;;;4984107;28;20066;-61
2022/05/23 05:26:29;;;;;;;13.95;9.32;;;18.70;99.90;;;;;;5015892;28;20042;-61
2022/05/23 05:28:55;;;;;;;11.65;9.00;;;18.70;99.90;;;;;;5019546;28;20098;-63
2022/05/23 05:31:48;;;;;;;13.05;9.68;;;18.70;99.90;;;;;;5019283;28;20076;-62
2022/05/23 05:34:20;;;;;;;9.25;8.35;;;18.80;99.90;;;;;;5018601;28;20100;-62
2022/05/23 05:36:52;;;;;;;12.07;8.57;;;18.90;99.90;;;;;;5019597;28;20038;-62
2022/05/23 05:39:23;;;;;;;10.27;8.77;;;18.90;99.90;;;;;;5019622;28;20133;-62
2022/05/23 05:42:02;;;;;;;11.05;8.65;;;19.10;99.90;;;;;;5018545;28;20119;-62
2022/05/23 05:44:44;;;;;;;16.25;9.95;;;19.20;99.90;;;;;;5018747;28;20056;-62
2022/05/23 05:47:15;;;;;;;10.00;8.82;;;19.30;99.90;;;;;;5018462;28;20331;-62
2022/05/23 05:49:44;;;;;;;10.88;8.10;;;19.40;99.90;;;;;;5019108;28;20333;-62
2022/05/23 05:52:15;;;;;;;10.07;9.07;;;19.50;99.90;;;;;;5018205;28;20034;-62
2022/05/23 05:55:00;;;;;;;12.30;9.38;;;19.50;99.90;;;;;;5018590;28;20561;-62
2022/05/23 05:57:26;;;;;;;11.07;8.23;;;19.70;99.90;;;;;;5001754;28;20037;-62
2022/05/23 05:59:55;;;;;;;11.68;8.45;;;19.70;99.90;;;;;;5018159;28;20042;-62
2022/05/23 06:02:22;;;;;;;12.25;8.73;;;19.90;99.90;;;;;;5018017;28;20345;-60
2022/05/23 06:04:48;;;;;;;10.90;8.60;;;20.00;99.90;;;;;;5018074;28;20302;-62
2022/05/23 06:12:54;;;;;;;10.20;7.50;;;20.10;99.90;;;;;;5017819;28;20033;-60
2022/05/23 06:15:38;;;;;;;8.40;7.50;;;20.10;99.90;;;;;;5018091;28;20099;-60
2022/05/23 06:18:06;;;;;;;9.40;7.60;;;20.00;99.90;;;;;;5017685;28;20167;-60
2022/05/23 06:20:31;;;;;;;11.38;7.65;;;20.20;99.90;;;;;;5017719;28;20121;-61
2022/05/23 06:23:00;;;;;;;9.52;6.50;;;20.20;99.90;;;;;;5017729;28;20109;-61
2022/05/23 06:25:27;;;;;;;11.27;7.88;;;20.20;99.90;;;;;;5017683;28;20033;-61
2022/05/23 06:27:58;;;;;;;12.90;8.43;;;20.30;99.90;;;;;;5017671;28;20053;-62
2022/05/23 06:30:24;;;;;;;9.38;7.10;;;20.60;99.90;;;;;;5017788;28;20054;-61
2022/05/23 06:32:53;;;;;;;9.93;6.80;;;20.60;99.90;;;;;;5018703;28;20108;-62
2022/05/23 06:35:30;;;;;;;8.80;7.13;;;20.50;99.90;;;;;;5017640;28;20279;-62
2022/05/23 06:37:56;;;;;;;11.48;6.68;;;20.50;99.90;;;;;;5001321;28;20030;-62
2022/05/23 06:40:40;;;;;;;10.07;6.75;;;20.10;99.90;;;;;;5018144;28;20088;-62
2022/05/23 06:43:40;;;;;;;12.45;7.20;;;19.90;99.90;;;;;;4985434;28;20366;-61
2022/05/23 06:46:29;;;;;;;7.25;5.82;;;19.90;99.90;;;;;;4999377;28;20033;-61
2022/05/23 06:49:13;;;;;;;9.60;6.63;;;20.10;99.90;;;;;;5018239;28;20432;-62
2022/05/23 06:52:05;;;;;;;11.20;7.28;;;20.40;99.90;;;;;;5017446;28;20129;-61
2022/05/23 06:54:57;;;;;;;9.70;6.43;;;20.60;99.90;;;;;;5003863;28;20045;-62
2022/05/23 06:57:27;;;;;;;9.82;6.90;;;20.70;99.90;;;;;;5017129;28;20045;-62
2022/05/23 06:59:53;;;;;;;8.63;6.63;;;20.80;99.90;;;;;;5017000;28;20053;-61
2022/05/23 07:02:19;;;;;;;8.02;6.80;;;20.80;99.90;;;;;;5016947;28;20093;-62
2022/05/23 07:14:22;;;;;;;8.60;6.93;;;20.90;99.90;;;;;;5012002;28;20049;-62
2022/05/23 07:16:51;;;;;;;8.48;6.35;;;20.70;99.90;;;;;;5017664;28;20053;-61
2022/05/23 07:19:25;;;;;;;8.77;6.20;;;20.80;99.90;;;;;;5016883;28;20512;-61
2022/05/23 07:22:02;;;;;;;8.88;5.80;;;21.00;99.90;;;;;;5001702;28;20084;-61
2022/05/23 07:24:34;;;;;;;9.77;5.78;;;21.10;99.90;;;;;;5016809;28;20029;-61
2022/05/23 07:27:05;;;;;;;8.05;5.95;;;20.90;99.90;;;;;;5016678;28;20271;-61
2022/05/23 07:29:31;;;;;;;7.40;6.28;;;20.70;99.90;;;;;;5016780;28;20034;-61
2022/05/23 07:32:02;;;;;;;7.88;5.82;;;20.70;99.90;;;;;;5016671;28;20026;-61
2022/05/23 07:34:29;;;;;;;7.05;5.43;;;20.50;99.90;;;;;;5016566;28;20310;-62
2022/05/23 07:36:55;;;;;;;7.72;6.18;;;20.70;99.90;;;;;;5017361;28;20034;-61
2022/05/23 07:39:24;;;;;;;7.97;5.57;;;20.70;99.90;;;;;;5017271;28;20382;-61
2022/05/23 07:42:05;;;;;;;7.32;5.78;;;21.00;99.90;;;;;;5016429;28;20135;-61
2022/05/23 07:44:31;;;;;;;7.40;6.18;;;21.20;99.90;;;;;;5016361;28;20069;-61
2022/05/23 07:47:06;;;;;;;8.38;6.32;;;21.40;99.90;;;;;;5016641;28;20033;-61
2022/05/23 07:49:34;;;;;;;13.20;6.78;;;21.50;99.90;;;;;;5017157;28;20164;-61
2022/05/23 07:52:14;;;;;;;8.13;5.90;;;21.70;99.90;;;;;;5016329;28;20034;-61
2022/05/23 08:00:35;;;;;;;8.23;5.50;;;22.10;99.90;;;;;;5016193;28;20418;-61
2022/05/23 08:03:22;;;;;;;7.10;5.85;;;22.20;99.90;;;;;;5016149;28;20084;-61
2022/05/23 08:06:11;;;;;;;10.05;6.40;;;22.30;99.90;;;;;;5020947;28;20038;-62
2022/05/23 08:08:37;;;;;;;9.88;6.72;;;22.40;99.90;;;;;;5022723;28;20120;-61
2022/05/23 08:11:08;;;;;;;8.07;5.90;;;22.60;99.90;;;;;;5006481;28;20111;-62
2022/05/23 08:13:42;;;;;;;6.90;6.22;;;22.90;99.90;;;;;;5022687;28;20129;-62
2022/05/23 08:16:08;;;;;;;7.72;5.68;;;22.90;99.90;;;;;;5022650;28;20029;-62
2022/05/23 08:18:35;;;;;;;8.00;5.47;;;22.80;99.90;;;;;;5022642;28;20026;-61
2022/05/23 08:21:02;;;;;;;8.20;5.57;;;22.90;99.90;;;;;;5022542;28;20034;-61
2022/05/23 08:23:37;;;;;;;8.25;5.60;;;22.90;99.90;;;;;;5022818;28;20108;-61
2022/05/23 08:26:29;;;;;;;7.00;5.15;;;22.80;99.90;;;;;;5020518;28;20038;-62
2022/05/23 08:28:55;;;;;;;5.85;4.70;;;23.10;99.90;;;;;;5022557;28;20033;-61
2022/05/23 08:31:25;;;;;;;7.63;5.57;;;23.30;99.90;;;;;;5022214;28;20408;-62
2022/05/23 08:34:11;;;;;;;5.78;4.93;;;23.40;99.90;;;;;;5022531;28;20041;-61
2022/05/23 08:36:37;;;;;;;7.72;5.63;;;23.30;99.90;;;;;;5023271;28;20041;-62
2022/05/23 08:39:05;;;;;;;10.20;6.18;;;23.00;99.90;;;;;;5022533;28;20128;-62
2022/05/23 08:41:44;;;;;;;8.60;6.45;;;23.00;99.90;;;;;;5022707;28;20042;-61
2022/05/23 08:44:41;;;;;;;8.60;6.40;;;22.80;99.90;;;;;;5022863;28;20358;-61
2022/05/23 08:47:25;;;;;;;8.90;6.05;;;22.30;99.90;;;;;;5022343;28;20026;-62
2022/05/23 08:50:08;;;;;;;6.50;5.40;;;22.50;99.90;;;;;;5022420;28;20030;-62
2022/05/23 08:52:56;;;;;;;5.75;5.20;;;22.90;99.90;;;;;;5022213;28;20031;-62
2022/05/23 08:55:48;;;;;;;8.50;5.32;;;23.20;99.90;;;;;;5021888;28;20037;-63
2022/05/23 08:58:46;;;;;;;7.22;5.50;;;23.20;99.90;;;;;;5022191;28;20026;-63
2022/05/23 09:01:18;;;;;;;8.07;5.43;;;22.80;99.90;;;;;;5022911;28;20041;-63
2022/05/23 09:03:53;;;;;;;6.88;4.97;;;22.90;99.90;;;;;;5022280;28;20041;-65
2022/05/23 09:06:36;;;;;;;6.05;4.97;;;22.90;99.90;;;;;;5006142;28;20025;-64
2022/05/23 09:09:07;;;;;;;8.73;5.75;;;22.80;99.90;;;;;;5023119;28;20036;-63
2022/05/23 09:11:39;;;;;;;7.18;5.60;;;22.60;99.90;;;;;;5022474;28;20491;-63
2022/05/23 09:14:08;;;;;;;8.73;6.45;;;22.50;99.90;;;;;;5022217;28;20104;-62
2022/05/23 09:16:56;;;;;;;10.90;6.10;;;22.40;99.90;;;;;;5020978;28;20041;-62
2022/05/23 09:19:22;;;;;;;9.05;5.85;;;22.30;99.90;;;;;;5019373;28;20176;-62
2022/05/23 09:24:57;;;;;;;6.57;5.63;;;22.40;99.90;;;;;;5019747;28;20302;-62
2022/05/23 09:27:36;;;;;;;7.07;5.35;;;22.60;99.90;;;;;;5019661;28;20374;-63
2022/05/23 09:30:08;;;;;;;7.72;5.47;;;22.80;99.90;;;;;;5019722;28;20124;-62
2022/05/23 09:32:55;;;;;;;7.72;4.85;;;23.00;99.90;;;;;;5019389;28;20042;-62
2022/05/23 09:35:27;;;;;;;7.82;5.22;;;22.90;99.90;;;;;;5019867;28;20034;-62
2022/05/23 09:38:14;;;;;;;7.05;5.50;;;22.50;99.90;;;;;;5019345;28;20413;-62
2022/05/23 09:40:55;;;;;;;6.50;4.65;;;23.10;99.90;;;;;;5018117;28;20033;-61
2022/05/23 09:49:20;;;;;;;5.45;3.83;;;23.70;99.90;;;;;;5018844;28;20112;-63
2022/05/23 09:52:21;;;;;;;6.55;4.22;;;24.20;99.90;;;;;;5018209;28;20060;-63
2022/05/23 09:54:54;;;;;;;5.00;4.60;;;24.20;99.90;;;;;;5018030;28;20068;-63
2022/05/23 09:57:27;;;;;;;5.45;4.60;;;24.40;99.90;;;;;;5018323;28;20037;-62
2022/05/23 10:00:07;;;;;;;6.55;4.15;;;24.60;99.90;;;;;;5018378;28;20318;-63
2022/05/23 10:02:47;;;;;;;6.90;4.50;;;24.70;99.90;;;;;;5018924;28;20061;-63
2022/05/23 10:05:39;;;;;;;5.40;4.03;;;24.90;99.90;;;;;;5018833;28;20037;-63
2022/05/23 10:08:11;;;;;;;5.95;4.50;;;25.00;99.90;;;;;;5001723;28;20425;-63
2022/05/23 10:10:51;;;;;;;4.28;3.88;;;25.20;99.90;;;;;;5019097;28;20064;-63
2022/05/23 10:13:28;;;;;;;6.38;4.57;;;25.50;99.90;;;;;;5018102;28;20033;-63
2022/05/23 10:16:00;;;;;;;8.88;4.38;;;25.90;99.90;;;;;;5018104;28;20088;-63
2022/05/23 10:18:30;;;;;;;6.20;3.83;;;25.90;99.90;;;;;;5018158;28;20048;-62
2022/05/23 10:20:57;;;;;;;7.80;5.28;;;25.60;99.90;;;;;;5017913;28;20412;-63
2022/05/23 10:23:26;;;;;;;5.55;4.20;;;25.20;99.90;;;;;;5017346;28;20307;-63
2022/05/23 10:26:11;;;;;;;6.72;5.18;;;25.10;99.90;;;;;;5018338;28;20041;-63
2022/05/23 10:28:58;;;;;;;6.65;5.07;;;24.70;99.90;;;;;;5018413;28;20029;-63
2022/05/23 10:31:37;;;;;;;6.07;4.43;;;24.40;99.90;;;;;;5018369;28;20081;-63
2022/05/23 10:34:25;;;;;;;5.53;4.95;;;24.30;99.90;;;;;;5018072;28;20317;-60
2022/05/23 10:36:54;;;;;;;5.40;4.60;;;24.20;99.90;;;;;;5018312;28;20034;-63
2022/05/23 10:42:36;;;;;;;8.50;4.60;;;24.30;99.90;;;;;;5017696;28;20128;-63
2022/05/23 10:45:21;;;;;;;8.52;4.60;;;24.40;99.90;;;;;;5017765;28;20026;-62
2022/05/23 10:48:41;;;;;;;6.75;5.30;;;24.60;99.90;;;;;;5017512;28;20033;-62
2022/05/23 10:51:26;;;;;;;6.68;5.30;;;24.80;99.90;;;;;;4977650;28;20361;-62
2022/05/23 10:54:03;;;;;;;5.05;4.65;;;24.80;99.90;;;;;;5014777;28;20052;-61
2022/05/23 10:56:42;;;;;;;11.65;5.25;;;24.80;99.90;;;;;;5018371;28;20327;-62
2022/05/23 10:59:17;;;;;;;8.48;4.35;;;24.80;99.90;;;;;;5017880;28;20329;-63
2022/05/23 11:02:01;;;;;;;5.30;3.78;;;24.80;99.90;;;;;;5017683;28;20030;-62
2022/05/23 11:04:45;;;;;;;5.25;3.30;;;24.60;99.90;;;;;;5018134;28;20037;-63
2022/05/23 11:07:34;;;;;;;4.90;2.72;;;24.80;99.90;;;;;;5017902;28;20030;-62
2022/05/23 11:10:08;;;;;;;6.22;3.40;;;24.70;99.90;;;;;;5017888;28;20424;-62
2022/05/23 11:12:34;;;;;;;4.10;3.05;;;24.30;99.90;;;;;;5017100;28;20063;-62
2022/05/23 11:15:24;;;;;;;3.78;2.72;;;24.00;99.90;;;;;;5017751;28;20092;-62
2022/05/23 11:18:05;;;;;;;3.15;2.72;;;23.90;99.90;;;;;;5017520;28;20394;-62
2022/05/23 11:20:39;;;;;;;3.65;2.50;;;23.80;99.90;;;;;;5017409;28;20030;-62
2022/05/23 11:23:29;;;;;;;5.20;2.83;;;23.70;99.90;;;;;;5016999;28;20042;-62
2022/05/23 11:26:09;;;;;;;5.65;3.10;;;23.70;99.90;;;;;;5017811;28;20171;-62
2022/05/23 11:34:57;;;;;;;3.03;2.10;;;23.70;99.90;;;;;;5017376;28;20068;-62
2022/05/23 11:39:57;;;;;;;3.65;2.70;;;23.80;99.90;;;;;;5016817;28;20028;-61
2022/05/23 11:42:49;;;;;;;3.75;2.38;;;23.80;99.90;;;;;;5017394;28;20469;-61
2022/05/23 11:48:34;;;;;;;3.10;2.03;;;23.50;99.90;;;;;;5016487;28;20034;-61
2022/05/23 11:51:40;;;;;;;3.20;2.40;;;23.50;99.90;;;;;;5016954;28;20022;-62
2022/05/23 11:54:08;;;;;;;5.82;2.65;;;23.30;99.90;;;;;;5016336;28;20048;-62
2022/05/23 11:56:43;;;;;;;4.18;2.58;;;23.00;99.90;;;;;;5016429;28;20041;-62
2022/05/23 11:59:23;;;;;;;5.47;2.85;;;22.50;99.90;;;;;;5016616;28;20029;-62
2022/05/23 12:02:08;;;;;;;9.75;3.70;;;22.10;99.90;;;;;;5015588;28;20325;-71
2022/05/23 12:04:49;;;;;;;5.55;4.03;;;22.00;99.90;;;;;;5016833;28;20036;-66
2022/05/23 12:07:41;;;;;;;9.75;4.60;;;21.90;99.90;;;;;;5017048;28;20058;-67
2022/05/23 12:10:21;;;;;;;7.80;4.70;;;21.50;99.90;;;;;;5017123;28;20406;-68
2022/05/23 12:12:49;;;;;;;9.40;4.65;;;20.70;99.90;;;;;;5016284;28;20029;-68
2022/05/23 12:15:43;;;;;;;9.63;5.32;;;20.20;99.90;;;;;;5016056;28;20036;-68
2022/05/23 12:18:37;;;;;;;8.82;5.07;;;19.70;99.90;;;;;;5016895;28;20030;-68
2022/05/23 12:21:06;;;;;;;8.27;5.45;;;19.40;99.90;;;;;;5016770;28;20033;-66
2022/05/23 12:23:44;;;;;;;6.32;4.97;;;19.10;99.90;;;;;;5016856;28;20025;-66
2022/05/23 12:26:10;;;;;;;7.18;5.30;;;19.20;99.90;;;;;;5016839;28;20100;-66
2022/05/23 12:28:57;;;;;;;7.03;5.70;;;19.30;99.90;;;;;;5016546;28;20026;-67
2022/05/23 12:31:28;;;;;;;11.00;5.72;;;19.40;99.90;;;;;;5016156;28;20077;-66
2022/05/23 12:34:02;;;;;;;8.57;6.22;;;19.30;99.90;;;;;;5016923;28;20037;-65
2022/05/23 12:36:31;;;;;;;7.30;5.68;;;19.30;99.90;;;;;;5015733;28;20029;-65
2022/05/23 12:39:13;;;;;;;7.00;5.45;;;19.30;99.90;;;;;;5016051;28;20164;-66
2022/05/23 12:41:51;;;;;;;7.18;5.80;;;19.50;99.90;;;;;;5015614;28;20034;-66
2022/05/23 12:44:37;;;;;;;6.28;5.68;;;19.60;99.90;;;;;;5016698;28;20302;-66
2022/05/23 12:47:16;;;;;;;7.82;6.18;;;19.70;99.90;;;;;;5015916;28;20101;-65
2022/05/23 12:49:42;;;;;;;7.20;6.28;;;19.80;99.90;;;;;;5016528;28;20022;-64
2022/05/23 12:52:45;;;;;;;9.10;6.80;;;20.10;99.90;;;;;;5017049;28;20038;-65
2022/05/23 12:55:27;;;;;;;8.95;6.18;;;20.30;99.90;;;;;;5019428;28;20459;-65
2022/05/23 12:58:10;;;;;;;6.65;5.97;;;20.20;99.90;;;;;;5020302;28;20037;-64
2022/05/23 13:00:40;;;;;;;7.55;6.00;;;20.10;99.90;;;;;;5020058;28;20385;-64
2022/05/23 13:03:30;;;;;;;7.60;6.13;;;19.90;99.90;;;;;;5019225;28;20030;-64
2022/05/23 13:06:05;;;;;;;12.25;6.93;;;19.90;99.90;;;;;;5020115;28;20022;-64
2022/05/23 13:08:46;;;;;;;11.15;7.50;;;19.90;99.90;;;;;;5020503;28;20188;-64
2022/05/23 13:11:20;;;;;;;9.48;6.85;;;20.00;99.90;;;;;;5020238;28;20033;-65
2022/05/23 13:13:48;;;;;;;11.02;7.15;;;20.10;99.90;;;;;;5019203;28;20061;-65
2022/05/23 13:16:28;;;;;;;8.50;6.80;;;20.20;99.90;;;;;;5019198;28;20353;-64
2022/05/23 13:27:23;;;;;;;10.20;7.97;;;20.70;99.90;;;;;;5019978;28;20033;-65
2022/05/23 13:29:58;;;;;;;12.15;8.25;;;20.70;99.90;;;;;;5019650;28;20053;-64
2022/05/23 13:32:26;;;;;;;14.32;8.80;;;20.60;99.90;;;;;;5019510;28;20030;-64
2022/05/23 13:34:53;;;;;;;12.70;8.77;;;19.90;99.90;;;;;;5019484;28;20056;-64
2022/05/23 13:37:29;;;;;;;14.75;9.40;;;19.50;99.90;;;;;;5018728;28;20030;-65
2022/05/23 13:39:55;;;;;;;11.15;8.35;;;19.60;99.90;;;;;;5019541;28;20048;-64
2022/05/23 13:42:28;;;;;;;14.45;9.38;;;19.70;99.90;;;;;;5019442;28;20034;-64
2022/05/23 13:45:09;;;;;;;10.50;8.95;;;19.80;99.90;;;;;;5018765;28;20041;-64
2022/05/23 13:47:36;;;;;;;13.38;9.95;;;19.90;99.90;;;;;;5019611;28;20397;-64
2022/05/23 13:50:34;;;;;;;16.70;11.48;;;19.90;99.90;;;;;;5019354;28;20084;-65
2022/05/23 13:53:10;;;;;;;15.63;11.30;;;20.10;99.90;;;;;;5018424;28;20334;-66
2022/05/23 13:55:40;;;;;;;15.25;11.75;;;20.10;99.90;;;;;;5018619;28;20116;-67
2022/05/23 13:58:23;;;;;;;16.45;10.73;;;20.20;99.90;;;;;;5018438;28;20030;-66
2022/05/23 14:00:59;;;;;;;15.80;11.48;;;20.10;99.90;;;;;;5018235;28;20368;-66
2022/05/23 14:03:36;;;;;;;14.98;11.52;;;19.90;99.90;;;;;;5018517;28;20021;-67
2022/05/23 14:06:10;;;;;;;16.40;10.80;;;20.00;99.90;;;;;;5018871;28;20108;-66
2022/05/23 14:08:40;;;;;;;18.08;11.45;;;19.90;99.90;;;;;;5018922;28;20086;-68
2022/05/23 14:11:20;;;;;;;15.63;11.40;;;19.80;99.90;;;;;;5018808;28;20390;-66
2022/05/23 14:13:46;;;;;;;19.33;13.07;;;19.90;99.90;;;;;;5018883;28;20065;-66
2022/05/23 14:16:19;;;;;;;14.38;11.20;;;19.90;99.90;;;;;;5018733;28;20038;-65
2022/05/23 14:19:02;;;;;;;15.30;12.32;;;20.10;99.90;;;;;;5018740;28;20048;-66
2022/05/23 14:21:34;;;;;;;12.20;10.73;;;20.50;99.90;;;;;;5018654;28;20042;-66
2022/05/23 14:24:00;;;;;;;13.50;11.10;;;20.60;99.90;;;;;;5018572;28;20021;-66
2022/05/23 14:26:26;;;;;;;14.85;12.90;;;20.60;99.90;;;;;;5017874;28;20050;-66
2022/05/23 14:28:55;;;;;;;17.50;14.13;;;20.60;99.90;;;;;;5018980;28;20068;-66
2022/05/23 14:31:41;;;;;;;17.67;15.05;;;20.50;99.90;;;;;;5018441;28;20125;-66